»·PEaware :: N1980 KSBA-KBUR

N1980 :: KSBA-KBUR

FLIGHT INFORMATION

Flight Status: Arrived
Operator: Privately registered:
United States
More flights under this callsign
Pilot: Max M. (20768)
Aircraft: Unknown
(DA62)
More flights by this aircraft type
Origin: KSBA Santa Barbara Mun
United States
Destination: KBUR Bob Hope-Burbank
United States
More flights between these airports :: More routes between these airports
Route: +DCT
File this flight plan on PilotEdge
Remarks:
Altitude:
(Current/Filed)
5,500ft
Speed:
(Current/Filed)
120kts
Departed: 06-Feb-19 01:46 PM
Arrived: 06-Feb-19 02:30 PM
Distance/Time
Traveled:
75nm/0:44
Distance/Time
To Go:
Arrived

Flight Plot

Page will automatically refresh every two minutes.


Map Options




Map Legend


Flown Route
Filed Route
Departure Airport
Arrival Airport
Navaid (VOR, NDB)
Fix

Horizontal Profiles

Position Reports

Time Latitude Longitude Heading Altitude Ground
Speed
06-Feb-19 13:24 34.422663 -119.835593 340 14ft 0kts
06-Feb-19 13:25 34.422663 -119.835593 340 14ft 0kts
06-Feb-19 13:26 34.422663 -119.835593 340 14ft 0kts
06-Feb-19 13:27 34.422663 -119.835593 340 14ft 0kts
06-Feb-19 13:28 34.422663 -119.835593 340 14ft 0kts
06-Feb-19 13:29 34.422663 -119.835593 340 14ft 0kts
06-Feb-19 13:30 34.422663 -119.835593 340 14ft 0kts
06-Feb-19 13:31 34.422663 -119.835593 340 14ft 0kts
06-Feb-19 13:32 34.422663 -119.835593 340 14ft 0kts
06-Feb-19 13:33 34.422663 -119.835593 340 14ft 0kts
06-Feb-19 13:34 34.422663 -119.835593 340 14ft 0kts
06-Feb-19 13:35 34.422663 -119.835593 340 14ft 0kts
06-Feb-19 13:36 34.422663 -119.835593 340 14ft 0kts
06-Feb-19 13:37 34.422663 -119.835593 340 14ft 0kts
06-Feb-19 13:38 34.422663 -119.835593 340 14ft 0kts
06-Feb-19 13:39 34.422663 -119.835593 340 14ft 0kts
06-Feb-19 13:40 34.422867 -119.836542 286 14ft 9kts
06-Feb-19 13:41 34.426050 -119.838148 340 14ft 1kts
06-Feb-19 13:42 34.426754 -119.837530 87 14ft 6kts
06-Feb-19 13:43 34.426856 -119.835368 75 14ft 3kts
06-Feb-19 13:44 34.427753 -119.835172 284 14ft 12kts
06-Feb-19 13:45 34.426650 -119.865881 270 189ft 139kts
06-Feb-19 13:46 34.428286 -119.913321 272 881ft 133kts
06-Feb-19 13:47 34.429792 -119.956055 272 1487ft 128kts
06-Feb-19 13:48 34.431369 -120.001075 272 1932ft 128kts
06-Feb-19 13:49 34.432700 -120.043031 262 2616ft 121kts
06-Feb-19 13:50 34.411902 -120.049592 107 3330ft 114kts
06-Feb-19 13:51 34.405377 -120.012863 101 4020ft 109kts
06-Feb-19 13:52 34.403337 -119.976800 87 4717ft 106kts
06-Feb-19 13:53 34.404606 -119.941368 87 5411ft 104kts
06-Feb-19 13:54 34.405876 -119.905994 87 6115ft 107kts
06-Feb-19 13:55 34.408767 -119.869501 80 6823ft 111kts
06-Feb-19 13:56 34.409311 -119.831577 93 7481ft 118kts
06-Feb-19 13:57 34.404621 -119.785337 98 7504ft 152kts
06-Feb-19 13:58 34.397555 -119.732832 99 7491ft 161kts
06-Feb-19 13:59 34.389958 -119.679039 99 7490ft 162kts
06-Feb-19 14:00 34.382254 -119.624894 99 7490ft 162kts
06-Feb-19 14:01 34.374545 -119.570789 99 7490ft 162kts
06-Feb-19 14:02 34.366840 -119.516746 99 7490ft 162kts
06-Feb-19 14:03 34.359152 -119.462852 99 7499ft 162kts
06-Feb-19 14:04 34.351442 -119.408824 99 7499ft 162kts
06-Feb-19 14:05 34.343713 -119.354684 99 7499ft 162kts
06-Feb-19 14:06 34.335997 -119.300661 99 7499ft 162kts
06-Feb-19 14:07 34.328270 -119.246588 99 7499ft 162kts
06-Feb-19 14:08 34.320531 -119.192450 99 7499ft 162kts
06-Feb-19 14:09 34.312819 -119.138525 99 7506ft 162kts
06-Feb-19 14:10 34.305093 -119.084528 99 7509ft 162kts
06-Feb-19 14:11 34.293196 -119.032775 93 7513ft 162kts
06-Feb-19 14:12 34.291346 -118.978124 91 7509ft 162kts
06-Feb-19 14:13 34.286162 -118.923665 97 7508ft 162kts
06-Feb-19 14:14 34.279701 -118.869304 97 7508ft 162kts
06-Feb-19 14:15 34.273257 -118.815024 97 7508ft 162kts
06-Feb-19 14:16 34.267869 -118.769525 97 7508ft 162kts
06-Feb-19 14:17 34.260570 -118.707848 97 7481ft 163kts
06-Feb-19 14:18 34.252896 -118.653688 97 7495ft 162kts
06-Feb-19 14:19 34.241924 -118.601268 127 7503ft 162kts
06-Feb-19 14:21 34.212296 -118.559764 130 7499ft 162kts
06-Feb-19 14:22 34.186603 -118.511612 121 6932ft 172kts
06-Feb-19 14:23 34.164936 -118.475703 131 6222ft 119kts
06-Feb-19 14:24 34.142863 -118.446111 125 5315ft 118kts
06-Feb-19 14:25 34.134450 -118.408224 102 4416ft 117kts
06-Feb-19 14:26 34.138746 -118.374806 11 3537ft 106kts
06-Feb-19 14:27 34.164915 -118.383202 336 2605ft 95kts
06-Feb-19 14:28 34.183743 -118.376736 82 1664ft 90kts
06-Feb-19 14:29 34.195499 -118.355589 354 738ft 63kts
06-Feb-19 14:30 34.198799 -118.357291 285 738ft 0kts
06-Feb-19 14:31 34.198799 -118.357291 285 738ft 0kts
06-Feb-19 14:32 34.199444 -118.358062 347 738ft 17kts
06-Feb-19 14:33 34.201623 -118.359153 248 738ft 0kts
06-Feb-19 14:34 34.201604 -118.359214 248 738ft 0kts
06-Feb-19 14:35 34.201563 -118.359344 248 738ft 0kts
06-Feb-19 14:36 34.201561 -118.359350 249 738ft 0kts

Navigation Log

Ident Type
Flight plan parsing failed, navigation log unavailable